sensor_id;sensor_type;location;lat;lon;timestamp;pressure;altitude;pressure_sealevel;temperature;humidity
12666;BME280;58531;59.050;17.416;2022-09-17T00:00:36;98667.81;;;8.16;100.00
12666;BME280;58531;59.050;17.416;2022-09-17T00:03:04;98665.28;;;8.07;100.00
12666;BME280;58531;59.050;17.416;2022-09-17T00:05:31;98673.66;;;8.00;100.00
12666;BME280;58531;59.050;17.416;2022-09-17T00:07:58;98671.78;;;7.86;100.00
12666;BME280;58531;59.050;17.416;2022-09-17T00:10:25;98673.50;;;7.89;100.00
12666;BME280;58531;59.050;17.416;2022-09-17T00:12:53;98674.44;;;7.86;100.00
12666;BME280;58531;59.050;17.416;2022-09-17T00:15:20;98681.88;;;7.82;100.00
12666;BME280;58531;59.050;17.416;2022-09-17T00:17:46;98678.72;;;7.84;100.00
12666;BME280;58531;59.050;17.416;2022-09-17T00:20:13;98682.13;;;7.84;100.00
12666;BME280;58531;59.050;17.416;2022-09-17T00:22:41;98680.28;;;7.90;100.00
12666;BME280;58531;59.050;17.416;2022-09-17T00:25:08;98682.47;;;7.92;100.00
12666;BME280;58531;59.050;17.416;2022-09-17T00:27:34;98682.69;;;7.88;100.00
12666;BME280;58531;59.050;17.416;2022-09-17T00:30:04;98686.81;;;7.89;100.00
12666;BME280;58531;59.050;17.416;2022-09-17T00:32:31;98687.19;;;7.82;100.00
12666;BME280;58531;59.050;17.416;2022-09-17T00:34:57;98688.81;;;7.80;100.00
12666;BME280;58531;59.050;17.416;2022-09-17T00:37:24;98687.56;;;7.75;100.00
12666;BME280;58531;59.050;17.416;2022-09-17T00:39:51;98687.28;;;7.73;100.00
12666;BME280;58531;59.050;17.416;2022-09-17T00:42:18;98683.44;;;7.74;100.00
12666;BME280;58531;59.050;17.416;2022-09-17T00:44:48;98690.88;;;7.70;100.00
12666;BME280;58531;59.050;17.416;2022-09-17T00:47:23;98690.88;;;7.70;100.00
12666;BME280;58531;59.050;17.416;2022-09-17T00:49:53;98684.16;;;7.75;100.00
12666;BME280;58531;59.050;17.416;2022-09-17T00:52:25;98682.31;;;7.81;100.00
12666;BME280;58531;59.050;17.416;2022-09-17T00:54:59;98692.66;;;7.79;100.00
12666;BME280;58531;59.050;17.416;2022-09-17T00:57:27;98691.41;;;7.74;100.00
12666;BME280;58531;59.050;17.416;2022-09-17T00:59:55;98700.56;;;7.73;100.00
12666;BME280;58531;59.050;17.416;2022-09-17T01:02:24;98701.50;;;7.70;100.00
12666;BME280;58531;59.050;17.416;2022-09-17T01:04:51;98699.81;;;7.73;100.00
12666;BME280;58531;59.050;17.416;2022-09-17T01:07:27;98700.38;;;7.77;100.00
12666;BME280;58531;59.050;17.416;2022-09-17T01:10:06;98705.97;;;7.79;100.00
12666;BME280;58531;59.050;17.416;2022-09-17T01:12:48;98700.19;;;7.80;100.00
12666;BME280;58531;59.050;17.416;2022-09-17T01:15:26;98700.38;;;7.77;100.00
12666;BME280;58531;59.050;17.416;2022-09-17T01:18:08;98703.50;;;7.75;100.00
12666;BME280;58531;59.050;17.416;2022-09-17T01:24:08;98699.00;;;7.81;100.00
12666;BME280;58531;59.050;17.416;2022-09-17T01:29:54;98692.28;;;7.86;100.00
12666;BME280;58531;59.050;17.416;2022-09-17T01:32:32;98696.69;;;7.89;100.00
12666;BME280;58531;59.050;17.416;2022-09-17T01:35:04;98696.69;;;7.89;100.00
12666;BME280;58531;59.050;17.416;2022-09-17T01:37:38;98698.63;;;7.88;100.00
12666;BME280;58531;59.050;17.416;2022-09-17T01:40:11;98699.63;;;7.91;100.00
12666;BME280;58531;59.050;17.416;2022-09-17T01:42:48;98695.81;;;7.97;100.00
12666;BME280;58531;59.050;17.416;2022-09-17T01:45:21;98700.22;;;8.00;100.00
12666;BME280;58531;59.050;17.416;2022-09-17T01:47:54;98692.25;;;8.00;100.00
12666;BME280;58531;59.050;17.416;2022-09-17T01:50:25;98699.31;;;8.03;100.00
12666;BME280;58531;59.050;17.416;2022-09-17T01:52:55;98695.00;;;8.06;100.00
12666;BME280;58531;59.050;17.416;2022-09-17T01:55:24;98699.38;;;8.09;100.00
12666;BME280;58531;59.050;17.416;2022-09-17T01:57:55;98697.44;;;8.09;100.00
12666;BME280;58531;59.050;17.416;2022-09-17T02:00:23;98699.00;;;8.16;100.00
12666;BME280;58531;59.050;17.416;2022-09-17T02:02:56;98693.25;;;8.17;100.00
12666;BME280;58531;59.050;17.416;2022-09-17T02:05:27;98695.78;;;8.26;100.00
12666;BME280;58531;59.050;17.416;2022-09-17T02:07:57;98696.03;;;8.28;100.00
12666;BME280;58531;59.050;17.416;2022-09-17T02:10:28;98698.75;;;8.33;100.00
12666;BME280;58531;59.050;17.416;2022-09-17T02:13:00;98693.44;;;8.33;100.00
12666;BME280;58531;59.050;17.416;2022-09-17T02:15:32;98703.91;;;8.37;100.00
12666;BME280;58531;59.050;17.416;2022-09-17T02:18:05;98698.91;;;8.44;100.00
12666;BME280;58531;59.050;17.416;2022-09-17T02:20:38;98701.34;;;8.48;100.00
12666;BME280;58531;59.050;17.416;2022-09-17T02:23:11;98692.44;;;8.51;100.00
12666;BME280;58531;59.050;17.416;2022-09-17T02:25:42;98704.34;;;8.55;100.00
12666;BME280;58531;59.050;17.416;2022-09-17T02:28:16;98696.97;;;8.65;100.00
12666;BME280;58531;59.050;17.416;2022-09-17T02:30:46;98707.06;;;8.61;100.00
12666;BME280;58531;59.050;17.416;2022-09-17T02:33:15;98702.41;;;8.56;100.00
12666;BME280;58531;59.050;17.416;2022-09-17T02:35:42;98706.75;;;8.53;100.00
12666;BME280;58531;59.050;17.416;2022-09-17T02:38:10;98706.66;;;8.48;100.00
12666;BME280;58531;59.050;17.416;2022-09-17T02:40:47;98709.47;;;8.39;100.00
12666;BME280;58531;59.050;17.416;2022-09-17T02:43:21;98720.50;;;8.32;100.00
12666;BME280;58531;59.050;17.416;2022-09-17T02:46:01;98720.91;;;8.25;100.00
12666;BME280;58531;59.050;17.416;2022-09-17T02:48:50;98717.72;;;8.21;100.00
12666;BME280;58531;59.050;17.416;2022-09-17T02:51:32;98721.56;;;8.20;100.00
12666;BME280;58531;59.050;17.416;2022-09-17T02:54:08;98724.09;;;8.29;100.00
12666;BME280;58531;59.050;17.416;2022-09-17T02:56:42;98719.06;;;8.31;100.00
12666;BME280;58531;59.050;17.416;2022-09-17T02:59:16;98719.44;;;8.44;100.00
12666;BME280;58531;59.050;17.416;2022-09-17T03:01:48;98713.00;;;8.50;100.00
12666;BME280;58531;59.050;17.416;2022-09-17T03:04:18;98718.31;;;8.50;100.00
12666;BME280;58531;59.050;17.416;2022-09-17T03:06:47;98722.91;;;8.50;100.00
12666;BME280;58531;59.050;17.416;2022-09-17T03:09:14;98721.03;;;8.56;100.00
12666;BME280;58531;59.050;17.416;2022-09-17T03:11:41;98720.50;;;8.52;100.00
12666;BME280;58531;59.050;17.416;2022-09-17T03:14:08;98720.97;;;8.50;100.00
12666;BME280;58531;59.050;17.416;2022-09-17T03:16:35;98718.50;;;8.47;100.00
12666;BME280;58531;59.050;17.416;2022-09-17T03:19:01;98718.50;;;8.47;100.00
12666;BME280;58531;59.050;17.416;2022-09-17T03:21:30;98710.25;;;8.45;100.00
12666;BME280;58531;59.050;17.416;2022-09-17T03:23:56;98717.72;;;8.41;100.00
12666;BME280;58531;59.050;17.416;2022-09-17T03:26:24;98716.72;;;8.38;100.00
12666;BME280;58531;59.050;17.416;2022-09-17T03:28:51;98729.97;;;8.33;100.00
12666;BME280;58531;59.050;17.416;2022-09-17T03:31:18;98722.63;;;8.28;100.00
12666;BME280;58531;59.050;17.416;2022-09-17T03:33:45;98731.34;;;8.28;100.00
12666;BME280;58531;59.050;17.416;2022-09-17T03:36:11;98724.66;;;8.18;100.00
12666;BME280;58531;59.050;17.416;2022-09-17T03:38:40;98729.44;;;8.15;100.00
12666;BME280;58531;59.050;17.416;2022-09-17T03:41:06;98732.56;;;8.13;100.00
12666;BME280;58531;59.050;17.416;2022-09-17T03:43:33;98733.69;;;8.07;100.00
12666;BME280;58531;59.050;17.416;2022-09-17T03:46:00;98734.13;;;8.05;100.00
12666;BME280;58531;59.050;17.416;2022-09-17T03:48:26;98731.47;;;8.05;100.00
12666;BME280;58531;59.050;17.416;2022-09-17T03:50:54;98738.78;;;8.10;100.00
12666;BME280;58531;59.050;17.416;2022-09-17T03:53:21;98734.00;;;8.14;100.00
12666;BME280;58531;59.050;17.416;2022-09-17T03:55:49;98722.56;;;8.08;100.00
12666;BME280;58531;59.050;17.416;2022-09-17T03:58:16;98735.53;;;8.01;100.00
12666;BME280;58531;59.050;17.416;2022-09-17T04:00:43;98737.16;;;7.98;100.00
12666;BME280;58531;59.050;17.416;2022-09-17T04:03:10;98736.28;;;7.87;100.00
12666;BME280;58531;59.050;17.416;2022-09-17T04:05:37;98732.91;;;7.86;100.00
12666;BME280;58531;59.050;17.416;2022-09-17T04:08:03;98741.25;;;7.79;100.00
12666;BME280;58531;59.050;17.416;2022-09-17T04:10:30;98738.03;;;7.75;100.00
12666;BME280;58531;59.050;17.416;2022-09-17T04:12:58;98737.03;;;7.73;100.00
12666;BME280;58531;59.050;17.416;2022-09-17T04:15:25;98734.84;;;7.71;100.00
12666;BME280;58531;59.050;17.416;2022-09-17T04:17:54;98742.47;;;7.64;100.00
12666;BME280;58531;59.050;17.416;2022-09-17T04:20:22;98739.06;;;7.63;100.00
12666;BME280;58531;59.050;17.416;2022-09-17T04:22:48;98742.56;;;7.55;100.00
12666;BME280;58531;59.050;17.416;2022-09-17T04:25:15;98738.59;;;7.50;100.00
12666;BME280;58531;59.050;17.416;2022-09-17T04:27:42;98735.59;;;7.57;100.00
12666;BME280;58531;59.050;17.416;2022-09-17T04:30:12;98743.19;;;7.64;100.00
12666;BME280;58531;59.050;17.416;2022-09-17T04:32:39;98748.22;;;7.62;100.00
12666;BME280;58531;59.050;17.416;2022-09-17T04:35:06;98750.06;;;7.56;100.00
12666;BME280;58531;59.050;17.416;2022-09-17T04:37:33;98749.22;;;7.50;100.00
12666;BME280;58531;59.050;17.416;2022-09-17T04:40:00;98750.88;;;7.48;100.00
12666;BME280;58531;59.050;17.416;2022-09-17T04:42:27;98753.91;;;7.41;100.00
12666;BME280;58531;59.050;17.416;2022-09-17T04:44:53;98753.44;;;7.42;100.00
12666;BME280;58531;59.050;17.416;2022-09-17T04:47:22;98760.22;;;7.43;100.00
12666;BME280;58531;59.050;17.416;2022-09-17T04:49:48;98757.94;;;7.51;100.00
12666;BME280;58531;59.050;17.416;2022-09-17T04:52:15;98757.47;;;7.52;100.00
12666;BME280;58531;59.050;17.416;2022-09-17T04:54:42;98755.72;;;7.49;100.00
12666;BME280;58531;59.050;17.416;2022-09-17T04:57:09;98757.31;;;7.56;100.00
12666;BME280;58531;59.050;17.416;2022-09-17T04:59:36;98763.59;;;7.58;100.00
12666;BME280;58531;59.050;17.416;2022-09-17T05:02:03;98757.56;;;7.58;100.00
12666;BME280;58531;59.050;17.416;2022-09-17T05:04:31;98757.56;;;7.58;100.00
12666;BME280;58531;59.050;17.416;2022-09-17T05:06:58;98757.38;;;7.61;100.00
12666;BME280;58531;59.050;17.416;2022-09-17T05:09:25;98765.63;;;7.63;100.00
12666;BME280;58531;59.050;17.416;2022-09-17T05:11:52;98757.38;;;7.61;100.00
12666;BME280;58531;59.050;17.416;2022-09-17T05:14:19;98766.09;;;7.62;100.00
12666;BME280;58531;59.050;17.416;2022-09-17T05:16:45;98770.38;;;7.59;100.00
12666;BME280;58531;59.050;17.416;2022-09-17T05:19:12;98766.38;;;7.64;100.00
12666;BME280;58531;59.050;17.416;2022-09-17T05:21:40;98772.59;;;7.61;100.00
12666;BME280;58531;59.050;17.416;2022-09-17T05:24:07;98769.47;;;7.62;100.00
12666;BME280;58531;59.050;17.416;2022-09-17T05:26:34;98770.38;;;7.59;100.00
12666;BME280;58531;59.050;17.416;2022-09-17T05:29:01;98772.03;;;7.57;100.00
12666;BME280;58531;59.050;17.416;2022-09-17T05:31:29;98769.84;;;7.55;100.00
12666;BME280;58531;59.050;17.416;2022-09-17T05:33:56;98774.50;;;7.60;100.00
12666;BME280;58531;59.050;17.416;2022-09-17T05:36:23;98777.91;;;7.75;100.00
12666;BME280;58531;59.050;17.416;2022-09-17T05:38:51;98783.78;;;8.62;100.00
12666;BME280;58531;59.050;17.416;2022-09-17T05:41:18;98775.56;;;9.56;100.00
12666;BME280;58531;59.050;17.416;2022-09-17T05:43:45;98778.44;;;9.78;99.63
12666;BME280;58531;59.050;17.416;2022-09-17T05:46:12;98783.84;;;9.58;96.43
12666;BME280;58531;59.050;17.416;2022-09-17T05:48:38;98787.72;;;10.61;96.86
12666;BME280;58531;59.050;17.416;2022-09-17T05:51:05;98800.19;;;12.04;89.15
12666;BME280;58531;59.050;17.416;2022-09-17T05:53:32;98795.03;;;13.18;87.21
12666;BME280;58531;59.050;17.416;2022-09-17T05:56:00;98795.84;;;14.36;78.64
12666;BME280;58531;59.050;17.416;2022-09-17T05:58:27;98805.47;;;15.53;67.07
12666;BME280;58531;59.050;17.416;2022-09-17T06:00:54;98805.75;;;15.81;66.74
12666;BME280;58531;59.050;17.416;2022-09-17T06:03:21;98799.91;;;15.95;64.83
12666;BME280;58531;59.050;17.416;2022-09-17T06:05:53;98807.00;;;16.24;63.14
12666;BME280;58531;59.050;17.416;2022-09-17T06:08:20;98805.50;;;15.66;62.49
12666;BME280;58531;59.050;17.416;2022-09-17T06:10:47;98800.94;;;15.42;65.83
12666;BME280;58531;59.050;17.416;2022-09-17T06:13:16;98810.91;;;16.10;62.90
12666;BME280;58531;59.050;17.416;2022-09-17T06:15:48;98811.31;;;16.46;62.19
12666;BME280;58531;59.050;17.416;2022-09-17T06:18:15;98802.25;;;17.08;60.10
12666;BME280;58531;59.050;17.416;2022-09-17T06:20:42;98810.00;;;18.19;56.98
12666;BME280;58531;59.050;17.416;2022-09-17T06:23:08;98813.50;;;19.18;53.38
12666;BME280;58531;59.050;17.416;2022-09-17T06:25:35;98805.31;;;18.68;54.15
12666;BME280;58531;59.050;17.416;2022-09-17T06:28:02;98804.97;;;18.71;53.15
12666;BME280;58531;59.050;17.416;2022-09-17T06:30:30;98810.72;;;18.68;53.24
12666;BME280;58531;59.050;17.416;2022-09-17T06:32:58;98806.84;;;18.84;53.13
12666;BME280;58531;59.050;17.416;2022-09-17T06:35:26;98801.44;;;18.84;52.71
12666;BME280;58531;59.050;17.416;2022-09-17T06:37:53;98807.41;;;18.90;51.46
12666;BME280;58531;59.050;17.416;2022-09-17T06:40:19;98806.31;;;18.50;53.04
12666;BME280;58531;59.050;17.416;2022-09-17T06:42:47;98811.81;;;19.58;51.28
12666;BME280;58531;59.050;17.416;2022-09-17T06:45:14;98814.53;;;19.50;50.03
12666;BME280;58531;59.050;17.416;2022-09-17T06:47:42;98815.28;;;19.15;51.23
12666;BME280;58531;59.050;17.416;2022-09-17T06:50:09;98814.13;;;17.92;53.84
12666;BME280;58531;59.050;17.416;2022-09-17T06:52:36;98800.25;;;16.05;59.20
12666;BME280;58531;59.050;17.416;2022-09-17T06:55:03;98818.75;;;16.40;60.21
12666;BME280;58531;59.050;17.416;2022-09-17T06:57:30;98814.13;;;16.66;59.53
12666;BME280;58531;59.050;17.416;2022-09-17T06:59:57;98812.47;;;16.06;58.65
12666;BME280;58531;59.050;17.416;2022-09-17T07:02:23;98811.13;;;15.13;63.42
12666;BME280;58531;59.050;17.416;2022-09-17T07:04:52;98807.31;;;14.60;66.46
12666;BME280;58531;59.050;17.416;2022-09-17T07:07:19;98816.25;;;14.20;68.13
12666;BME280;58531;59.050;17.416;2022-09-17T07:09:46;98815.56;;;13.85;69.42
12666;BME280;58531;59.050;17.416;2022-09-17T07:12:13;98815.00;;;13.17;72.41
12666;BME280;58531;59.050;17.416;2022-09-17T07:14:40;98822.84;;;13.04;74.57
12666;BME280;58531;59.050;17.416;2022-09-17T07:17:07;98818.06;;;13.43;73.17
12666;BME280;58531;59.050;17.416;2022-09-17T07:19:33;98822.34;;;13.57;72.65
12666;BME280;58531;59.050;17.416;2022-09-17T07:22:02;98821.69;;;14.10;69.83
12666;BME280;58531;59.050;17.416;2022-09-17T07:24:28;98823.06;;;13.92;71.04
12666;BME280;58531;59.050;17.416;2022-09-17T07:26:55;98833.66;;;14.14;71.80
12666;BME280;58531;59.050;17.416;2022-09-17T07:29:22;98823.38;;;14.42;70.55
12666;BME280;58531;59.050;17.416;2022-09-17T07:31:50;98827.53;;;14.43;70.07
12666;BME280;58531;59.050;17.416;2022-09-17T07:34:17;98825.91;;;14.34;70.40
12666;BME280;58531;59.050;17.416;2022-09-17T07:36:44;98818.53;;;14.40;71.19
12666;BME280;58531;59.050;17.416;2022-09-17T07:39:12;98824.06;;;13.89;71.95
12666;BME280;58531;59.050;17.416;2022-09-17T07:41:39;98827.28;;;14.17;72.00
12666;BME280;58531;59.050;17.416;2022-09-17T07:44:06;98824.84;;;14.19;70.25
12666;BME280;58531;59.050;17.416;2022-09-17T07:46:34;98826.22;;;14.25;72.32
12666;BME280;58531;59.050;17.416;2022-09-17T07:49:01;98827.78;;;13.81;72.57
12666;BME280;58531;59.050;17.416;2022-09-17T07:51:28;98840.28;;;13.73;72.39
12666;BME280;58531;59.050;17.416;2022-09-17T07:53:55;98827.63;;;13.27;73.97
12666;BME280;58531;59.050;17.416;2022-09-17T07:56:26;98838.47;;;13.51;73.09
12666;BME280;58531;59.050;17.416;2022-09-17T07:58:53;98836.94;;;13.61;73.27
12666;BME280;58531;59.050;17.416;2022-09-17T08:01:20;98844.13;;;13.48;71.93
12666;BME280;58531;59.050;17.416;2022-09-17T08:03:48;98850.78;;;13.71;73.07
12666;BME280;58531;59.050;17.416;2022-09-17T08:06:17;98844.06;;;13.94;72.06
12666;BME280;58531;59.050;17.416;2022-09-17T08:08:44;98855.16;;;14.38;71.54
12666;BME280;58531;59.050;17.416;2022-09-17T08:11:13;98848.78;;;14.41;69.76
12666;BME280;58531;59.050;17.416;2022-09-17T08:13:42;98857.34;;;14.63;69.31
12666;BME280;58531;59.050;17.416;2022-09-17T08:16:10;98854.69;;;14.39;69.16
12666;BME280;58531;59.050;17.416;2022-09-17T08:18:38;98854.03;;;14.28;69.24
12666;BME280;58531;59.050;17.416;2022-09-17T08:21:07;98866.75;;;14.27;72.37
12666;BME280;58531;59.050;17.416;2022-09-17T08:23:36;98863.88;;;14.20;69.93
12666;BME280;58531;59.050;17.416;2022-09-17T08:26:05;98865.38;;;14.16;69.91
12666;BME280;58531;59.050;17.416;2022-09-17T08:28:33;98867.75;;;13.90;72.62
12666;BME280;58531;59.050;17.416;2022-09-17T08:31:03;98874.56;;;13.91;71.51
12666;BME280;58531;59.050;17.416;2022-09-17T08:33:31;98874.22;;;14.05;71.20
12666;BME280;58531;59.050;17.416;2022-09-17T08:35:58;98870.75;;;14.10;69.04
12666;BME280;58531;59.050;17.416;2022-09-17T08:38:25;98863.66;;;14.13;69.79
12666;BME280;58531;59.050;17.416;2022-09-17T08:41:01;98871.69;;;14.13;70.66
12666;BME280;58531;59.050;17.416;2022-09-17T08:43:39;98871.09;;;14.30;70.77
12666;BME280;58531;59.050;17.416;2022-09-17T08:46:09;98878.31;;;14.17;70.36
12666;BME280;58531;59.050;17.416;2022-09-17T08:48:41;98895.03;;;13.94;70.31
12666;BME280;58531;59.050;17.416;2022-09-17T08:51:18;98885.94;;;14.02;70.07
12666;BME280;58531;59.050;17.416;2022-09-17T08:53:56;98882.63;;;14.25;70.75
12666;BME280;58531;59.050;17.416;2022-09-17T08:56:29;98891.81;;;14.35;69.48
12666;BME280;58531;59.050;17.416;2022-09-17T08:59:09;98885.63;;;14.11;71.14
12666;BME280;58531;59.050;17.416;2022-09-17T09:01:46;98886.34;;;13.77;70.41
12666;BME280;58531;59.050;17.416;2022-09-17T09:04:35;98897.44;;;13.97;71.49
12666;BME280;58531;59.050;17.416;2022-09-17T09:07:10;98893.28;;;14.02;70.86
12666;BME280;58531;59.050;17.416;2022-09-17T09:09:42;98895.16;;;13.72;71.61
12666;BME280;58531;59.050;17.416;2022-09-17T09:12:16;98894.53;;;13.55;72.33
12666;BME280;58531;59.050;17.416;2022-09-17T09:14:47;98899.38;;;13.62;72.57
12666;BME280;58531;59.050;17.416;2022-09-17T09:17:18;98897.38;;;13.73;73.08
12666;BME280;58531;59.050;17.416;2022-09-17T09:19:47;98907.59;;;14.10;71.65
12666;BME280;58531;59.050;17.416;2022-09-17T09:22:26;98908.28;;;14.21;70.82
12666;BME280;58531;59.050;17.416;2022-09-17T09:25:02;98911.44;;;14.25;70.48
12666;BME280;58531;59.050;17.416;2022-09-17T09:27:36;98908.16;;;14.37;69.47
12666;BME280;58531;59.050;17.416;2022-09-17T09:30:08;98918.22;;;14.31;70.43
12666;BME280;58531;59.050;17.416;2022-09-17T09:32:46;98915.91;;;14.46;69.90
12666;BME280;58531;59.050;17.416;2022-09-17T09:35:19;98922.38;;;14.56;70.42
12666;BME280;58531;59.050;17.416;2022-09-17T09:37:54;98919.22;;;14.28;67.98
12666;BME280;58531;59.050;17.416;2022-09-17T09:40:30;98924.66;;;14.18;69.46
12666;BME280;58531;59.050;17.416;2022-09-17T09:43:00;98926.91;;;14.08;70.80
12666;BME280;58531;59.050;17.416;2022-09-17T09:45:39;98931.19;;;14.27;70.83
12666;BME280;58531;59.050;17.416;2022-09-17T09:48:15;98930.31;;;14.73;71.38
12666;BME280;58531;59.050;17.416;2022-09-17T09:50:48;98929.28;;;14.52;71.12
12666;BME280;58531;59.050;17.416;2022-09-17T09:53:21;98934.72;;;14.46;70.44
12666;BME280;58531;59.050;17.416;2022-09-17T09:56:02;98932.78;;;14.71;68.78
12666;BME280;58531;59.050;17.416;2022-09-17T09:58:34;98937.59;;;15.02;71.10
12666;BME280;58531;59.050;17.416;2022-09-17T10:01:02;98944.38;;;14.84;67.97
12666;BME280;58531;59.050;17.416;2022-09-17T10:03:31;98937.47;;;14.89;68.48
12666;BME280;58531;59.050;17.416;2022-09-17T10:06:02;98944.47;;;14.73;68.46
12666;BME280;58531;59.050;17.416;2022-09-17T10:08:31;98942.69;;;14.81;68.88
12666;BME280;58531;59.050;17.416;2022-09-17T10:11:01;98940.06;;;15.24;67.85
12666;BME280;58531;59.050;17.416;2022-09-17T10:13:30;98946.16;;;15.24;68.17
12666;BME280;58531;59.050;17.416;2022-09-17T10:16:14;98952.66;;;15.10;66.98
12666;BME280;58531;59.050;17.416;2022-09-17T10:18:43;98949.63;;;14.71;68.43
12666;BME280;58531;59.050;17.416;2022-09-17T10:21:18;98950.38;;;14.42;69.86
12666;BME280;58531;59.050;17.416;2022-09-17T10:23:46;98954.97;;;14.47;70.21
12666;BME280;58531;59.050;17.416;2022-09-17T10:26:21;98946.00;;;14.69;69.55
12666;BME280;58531;59.050;17.416;2022-09-17T10:28:51;98956.09;;;14.57;70.06
12666;BME280;58531;59.050;17.416;2022-09-17T10:31:18;98951.94;;;14.56;69.33
12666;BME280;58531;59.050;17.416;2022-09-17T10:33:57;98958.72;;;14.33;70.20
12666;BME280;58531;59.050;17.416;2022-09-17T10:36:39;98955.84;;;14.55;70.16
12666;BME280;58531;59.050;17.416;2022-09-17T10:39:31;98956.09;;;14.57;70.82
12666;BME280;58531;59.050;17.416;2022-09-17T10:42:00;98958.63;;;15.03;66.87
12666;BME280;58531;59.050;17.416;2022-09-17T10:44:28;98962.66;;;14.91;67.67
12666;BME280;58531;59.050;17.416;2022-09-17T10:47:02;98968.28;;;14.58;69.13
12666;BME280;58531;59.050;17.416;2022-09-17T10:49:40;98965.66;;;14.53;70.24
12666;BME280;58531;59.050;17.416;2022-09-17T10:52:11;98977.25;;;14.72;69.44
12666;BME280;58531;59.050;17.416;2022-09-17T10:58:01;98979.31;;;14.84;67.52
12666;BME280;58531;59.050;17.416;2022-09-17T11:00:37;98977.22;;;15.01;66.84
12666;BME280;58531;59.050;17.416;2022-09-17T11:06:20;98987.00;;;14.75;68.01
12666;BME280;58531;59.050;17.416;2022-09-17T11:09:00;98990.66;;;14.42;71.52
12666;BME280;58531;59.050;17.416;2022-09-17T11:11:37;98988.75;;;14.37;70.56
12666;BME280;58531;59.050;17.416;2022-09-17T11:14:19;98997.50;;;14.43;70.58
12666;BME280;58531;59.050;17.416;2022-09-17T11:17:01;99001.22;;;14.29;71.12
12666;BME280;58531;59.050;17.416;2022-09-17T11:19:38;99004.72;;;14.19;72.53
12666;BME280;58531;59.050;17.416;2022-09-17T11:22:17;99003.34;;;14.02;71.53
12666;BME280;58531;59.050;17.416;2022-09-17T11:25:17;99004.56;;;14.01;73.27
12666;BME280;58531;59.050;17.416;2022-09-17T11:30:41;99006.22;;;14.79;70.73
12666;BME280;58531;59.050;17.416;2022-09-17T11:33:32;99003.53;;;15.08;70.81
12666;BME280;58531;59.050;17.416;2022-09-17T11:36:09;99007.34;;;15.18;70.52
12666;BME280;58531;59.050;17.416;2022-09-17T11:38:41;99002.91;;;15.50;69.01
12666;BME280;58531;59.050;17.416;2022-09-17T11:41:13;99004.88;;;15.68;65.79
12666;BME280;58531;59.050;17.416;2022-09-17T11:43:46;98996.06;;;15.49;65.57
12666;BME280;58531;59.050;17.416;2022-09-17T11:46:17;99009.72;;;15.27;67.29
12666;BME280;58531;59.050;17.416;2022-09-17T11:48:51;99011.25;;;15.65;69.17
12666;BME280;58531;59.050;17.416;2022-09-17T11:51:26;99011.44;;;16.09;64.83
12666;BME280;58531;59.050;17.416;2022-09-17T11:54:01;99012.03;;;16.21;63.71
12666;BME280;58531;59.050;17.416;2022-09-17T11:56:35;99018.28;;;16.29;66.13
12666;BME280;58531;59.050;17.416;2022-09-17T11:59:11;99019.84;;;16.06;64.22
12666;BME280;58531;59.050;17.416;2022-09-17T12:01:44;99035.16;;;14.67;73.95
12666;BME280;58531;59.050;17.416;2022-09-17T12:04:27;99047.22;;;13.31;82.05
12666;BME280;58531;59.050;17.416;2022-09-17T12:07:00;99055.28;;;12.87;86.21
12666;BME280;58531;59.050;17.416;2022-09-17T12:09:31;99037.47;;;12.57;89.76
12666;BME280;58531;59.050;17.416;2022-09-17T12:12:04;99044.28;;;12.58;89.07
12666;BME280;58531;59.050;17.416;2022-09-17T12:14:42;99040.41;;;12.59;88.68
12666;BME280;58531;59.050;17.416;2022-09-17T12:17:13;99042.09;;;12.56;88.10
12666;BME280;58531;59.050;17.416;2022-09-17T12:19:45;99041.59;;;12.52;88.17
12666;BME280;58531;59.050;17.416;2022-09-17T12:22:17;99037.47;;;12.57;88.02
12666;BME280;58531;59.050;17.416;2022-09-17T12:24:49;99035.53;;;12.52;90.35
12666;BME280;58531;59.050;17.416;2022-09-17T12:27:23;99042.34;;;12.64;88.24
12666;BME280;58531;59.050;17.416;2022-09-17T12:30:07;99042.09;;;12.67;89.72
12666;BME280;58531;59.050;17.416;2022-09-17T12:32:56;99048.22;;;13.17;89.69
12666;BME280;58531;59.050;17.416;2022-09-17T12:38:46;99048.19;;;13.39;85.18
12666;BME280;58531;59.050;17.416;2022-09-17T12:41:20;99040.91;;;13.17;84.75
12666;BME280;58531;59.050;17.416;2022-09-17T12:44:02;99041.16;;;13.03;86.42
12666;BME280;58531;59.050;17.416;2022-09-17T12:46:54;99046.00;;;12.83;86.50
12666;BME280;58531;59.050;17.416;2022-09-17T12:49:32;99041.63;;;12.74;85.59
12666;BME280;58531;59.050;17.416;2022-09-17T12:52:06;99042.34;;;12.53;86.11
12666;BME280;58531;59.050;17.416;2022-09-17T12:55:01;99045.72;;;12.53;86.86
12666;BME280;58531;59.050;17.416;2022-09-17T12:57:42;99048.44;;;12.64;86.99
12666;BME280;58531;59.050;17.416;2022-09-17T13:00:13;99052.63;;;13.03;86.61
12666;BME280;58531;59.050;17.416;2022-09-17T13:02:44;99040.66;;;13.21;84.30
12666;BME280;58531;59.050;17.416;2022-09-17T13:11:49;99038.31;;;14.36;76.75
12666;BME280;58531;59.050;17.416;2022-09-17T13:14:29;99044.66;;;14.33;78.17
12666;BME280;58531;59.050;17.416;2022-09-17T13:17:01;99041.84;;;14.15;78.16
12666;BME280;58531;59.050;17.416;2022-09-17T13:19:38;99039.41;;;14.17;77.96
12666;BME280;58531;59.050;17.416;2022-09-17T13:22:12;99041.28;;;14.27;76.97
12666;BME280;58531;59.050;17.416;2022-09-17T13:24:42;99043.16;;;14.43;76.45
12666;BME280;58531;59.050;17.416;2022-09-17T13:27:19;99040.06;;;14.63;77.33
12666;BME280;58531;59.050;17.416;2022-09-17T13:30:01;99044.19;;;14.99;74.69
12666;BME280;58531;59.050;17.416;2022-09-17T13:32:48;99044.91;;;15.00;74.68
12666;BME280;58531;59.050;17.416;2022-09-17T13:35:49;99048.22;;;14.87;73.74